createdAt,value
2019-01-08T00:02:28.985Z,5.50
2019-01-08T00:08:33.526Z,5.60
2019-01-08T00:14:38.089Z,5.60
2019-01-08T00:20:42.642Z,5.60
2019-01-08T00:26:47.194Z,5.60
2019-01-08T00:32:51.757Z,5.70
2019-01-08T00:38:56.309Z,5.70
2019-01-08T00:45:00.865Z,5.80
2019-01-08T00:51:05.419Z,5.90
2019-01-08T00:57:09.968Z,5.90
2019-01-08T01:03:14.618Z,6.10
2019-01-08T01:09:20.789Z,6.20
2019-01-08T01:15:25.343Z,6.30
2019-01-08T01:21:29.904Z,6.40
2019-01-08T01:27:34.487Z,6.40
2019-01-08T01:33:39.041Z,6.30
2019-01-08T01:39:43.593Z,6.30
2019-01-08T01:45:48.144Z,6.50
2019-01-08T01:51:52.687Z,6.50
2019-01-08T01:57:57.257Z,6.50
2019-01-08T02:04:01.894Z,6.50
2019-01-08T02:10:08.541Z,6.50
2019-01-08T02:16:13.088Z,6.70
2019-01-08T02:22:17.654Z,6.80
2019-01-08T02:28:22.213Z,6.80
2019-01-08T02:34:26.765Z,6.80
2019-01-08T02:40:31.363Z,6.90
2019-01-08T02:46:35.983Z,6.90
2019-01-08T02:52:40.622Z,6.80
2019-01-08T02:58:45.163Z,6.80
2019-01-08T03:04:49.722Z,6.80
2019-01-08T03:10:54.268Z,6.90
2019-01-08T03:16:58.805Z,6.90
2019-01-08T03:23:03.368Z,6.90
2019-01-08T03:29:07.913Z,6.90
2019-01-08T03:35:12.492Z,6.80
2019-01-08T03:41:17.106Z,6.80
2019-01-08T03:47:21.805Z,6.70
2019-01-08T03:53:26.364Z,6.70
2019-01-08T03:59:32.497Z,6.50
2019-01-08T04:05:37.061Z,6.40
2019-01-08T04:11:41.691Z,6.30
2019-01-08T04:17:46.238Z,6.20
2019-01-08T04:23:50.808Z,6.20
2019-01-08T04:29:55.349Z,6.20
2019-01-08T04:35:59.892Z,6.20
2019-01-08T04:42:04.462Z,6.00
2019-01-08T04:48:09.013Z,5.80
2019-01-08T04:54:13.574Z,5.80
2019-01-08T05:00:18.120Z,5.80
2019-01-08T05:06:22.670Z,5.80
2019-01-08T05:12:27.205Z,5.90
2019-01-08T05:18:31.767Z,6.10
2019-01-08T05:24:36.334Z,6.20
2019-01-08T05:30:40.902Z,6.20
2019-01-08T05:36:45.464Z,6.20
2019-01-08T05:42:50.019Z,6.20
2019-01-08T05:48:54.579Z,6.10
2019-01-08T05:54:59.155Z,6.10
2019-01-08T06:01:03.731Z,6.10
2019-01-08T06:07:08.270Z,6.20
2019-01-08T06:13:12.915Z,6.10
2019-01-08T06:19:17.467Z,6.10
2019-01-08T06:25:22.034Z,6.00
2019-01-08T06:31:26.585Z,5.90
2019-01-08T06:37:31.127Z,5.80
2019-01-08T06:43:35.783Z,5.90
2019-01-08T06:49:40.323Z,5.70
2019-01-08T06:55:44.889Z,5.50
2019-01-08T07:01:49.457Z,5.40
2019-01-08T07:07:54.040Z,5.20
2019-01-08T07:13:58.586Z,5.20
2019-01-08T07:20:03.264Z,5.30
2019-01-08T07:26:07.813Z,5.50
2019-01-08T07:32:12.373Z,5.60
2019-01-08T07:38:16.928Z,5.60
2019-01-08T07:44:21.479Z,5.70
2019-01-08T07:50:26.026Z,5.60
2019-01-08T07:56:30.664Z,5.70
2019-01-08T08:02:35.209Z,5.90
2019-01-08T08:08:39.758Z,5.90
2019-01-08T08:14:44.309Z,6.00
2019-01-08T08:20:48.848Z,5.70
2019-01-08T08:26:53.395Z,5.50
2019-01-08T08:32:57.942Z,5.50
2019-01-08T08:39:02.506Z,5.50
2019-01-08T08:45:08.595Z,5.60
2019-01-08T08:51:13.239Z,5.60
2019-01-08T08:57:17.797Z,5.50
2019-01-08T09:03:22.404Z,5.40
2019-01-08T09:09:26.970Z,5.30
2019-01-08T09:15:31.603Z,5.40
2019-01-08T09:21:36.146Z,5.50
2019-01-08T09:27:40.704Z,5.50
2019-01-08T09:33:45.238Z,5.60
2019-01-08T09:39:49.801Z,5.70
2019-01-08T09:45:54.420Z,5.70
2019-01-08T09:51:58.955Z,5.70
2019-01-08T09:58:03.639Z,5.70
2019-01-08T10:04:08.180Z,5.80
2019-01-08T10:10:12.807Z,5.80
2019-01-08T10:16:17.359Z,5.70
2019-01-08T10:22:22.113Z,5.60
2019-01-08T10:28:26.655Z,5.50
2019-01-08T10:34:31.198Z,5.50
2019-01-08T10:40:35.747Z,5.40
2019-01-08T10:46:40.286Z,5.40
2019-01-08T10:52:44.825Z,5.30
2019-01-08T10:58:49.375Z,5.30
2019-01-08T11:04:53.912Z,5.40
2019-01-08T11:10:58.533Z,5.50
2019-01-08T11:17:03.150Z,5.50
2019-01-08T11:23:07.698Z,5.60
2019-01-08T11:29:12.239Z,5.50
2019-01-08T11:35:16.786Z,5.50
2019-01-08T11:41:21.402Z,5.50
2019-01-08T11:47:25.963Z,5.50
2019-01-08T11:53:30.504Z,5.60
2019-01-08T11:59:35.043Z,5.60
2019-01-08T12:05:39.601Z,5.70
2019-01-08T12:11:44.142Z,5.80
2019-01-08T12:17:48.950Z,5.90
2019-01-08T12:23:53.496Z,5.90
2019-01-08T12:29:58.037Z,5.80
2019-01-08T12:36:02.591Z,5.80
2019-01-08T12:42:07.145Z,5.80
2019-01-08T12:48:11.691Z,5.80
2019-01-08T12:54:16.262Z,5.70
2019-01-08T13:00:20.880Z,5.70
2019-01-08T13:06:25.418Z,5.80
2019-01-08T13:12:29.983Z,5.80
2019-01-08T13:18:34.558Z,5.90
2019-01-08T13:24:39.110Z,5.90
2019-01-08T13:30:43.735Z,5.90
2019-01-08T13:36:48.282Z,6.10
2019-01-08T13:42:52.850Z,6.20
2019-01-08T13:48:57.398Z,6.20
2019-01-08T13:55:01.964Z,6.20
2019-01-08T14:01:06.571Z,6.20
2019-01-08T14:07:13.119Z,6.20
2019-01-08T14:13:17.466Z,6.20
2019-01-08T14:19:22.013Z,6.10
2019-01-08T14:25:26.575Z,6.00
2019-01-08T14:31:31.144Z,5.90
2019-01-08T14:37:36.580Z,5.90
2019-01-08T14:43:41.135Z,5.90
2019-01-08T14:49:45.700Z,5.90
2019-01-08T14:55:51.025Z,5.70
2019-01-08T15:01:55.568Z,5.40
2019-01-08T15:08:00.186Z,5.40
2019-01-08T15:14:04.813Z,5.40
2019-01-08T15:20:09.532Z,5.50
2019-01-08T15:26:14.112Z,5.50
2019-01-08T15:32:18.814Z,5.30
2019-01-08T15:38:23.357Z,5.40
2019-01-08T15:44:27.975Z,5.50
2019-01-08T15:50:32.516Z,5.20
2019-01-08T15:56:37.064Z,5.10
2019-01-08T16:02:41.690Z,5.10
2019-01-08T16:08:46.238Z,5.20
2019-01-08T16:14:50.800Z,5.30
2019-01-08T16:20:55.362Z,5.30
2019-01-08T16:27:00.201Z,5.40
2019-01-08T16:33:04.832Z,5.40
2019-01-08T16:39:09.646Z,5.30
2019-01-08T16:45:14.285Z,5.30
2019-01-08T16:51:18.906Z,5.30
2019-01-08T16:57:23.461Z,5.20
2019-01-08T17:03:28.030Z,5.20
2019-01-08T17:09:32.576Z,5.00
2019-01-08T17:15:37.200Z,4.90
2019-01-08T17:21:41.741Z,4.60
2019-01-08T17:27:46.291Z,4.60
2019-01-08T17:33:50.915Z,4.60
2019-01-08T17:39:55.478Z,4.60
2019-01-08T17:46:00.034Z,4.50
2019-01-08T17:52:04.580Z,4.50
2019-01-08T17:58:38.962Z,4.40
2019-01-08T18:04:43.509Z,4.20
2019-01-08T18:10:49.192Z,4.10
2019-01-08T18:16:56.381Z,4.20
2019-01-08T18:23:00.929Z,4.20
2019-01-08T18:29:05.614Z,4.30
2019-01-08T18:35:10.316Z,4.20
2019-01-08T18:41:14.855Z,4.30
2019-01-08T18:47:19.411Z,4.30
2019-01-08T18:53:23.996Z,4.30
2019-01-08T18:59:28.535Z,4.30
2019-01-08T19:05:34.527Z,4.30
2019-01-08T19:11:39.184Z,4.40
2019-01-08T19:17:43.736Z,4.40
2019-01-08T19:23:48.289Z,4.30
2019-01-08T19:29:52.847Z,4.30
2019-01-08T19:35:57.387Z,4.30
2019-01-08T19:42:02.196Z,4.20
2019-01-08T19:48:06.812Z,4.10
2019-01-08T19:54:11.449Z,4.00
2019-01-08T20:00:16.203Z,4.00
2019-01-08T20:06:21.037Z,4.00
2019-01-08T20:12:25.593Z,3.90
2019-01-08T20:18:30.145Z,3.90
2019-01-08T20:24:34.700Z,3.90
2019-01-08T20:30:39.253Z,4.10
2019-01-08T20:36:43.815Z,4.10
2019-01-08T20:42:48.348Z,4.00
2019-01-08T20:48:52.957Z,3.90
2019-01-08T20:54:57.581Z,3.80
2019-01-08T21:01:02.134Z,3.80
2019-01-08T21:07:06.689Z,3.90
2019-01-08T21:13:11.235Z,3.70
2019-01-08T21:19:15.815Z,3.60
2019-01-08T21:25:20.437Z,3.80
2019-01-08T21:31:24.967Z,4.00
2019-01-08T21:37:29.522Z,4.10
2019-01-08T21:43:34.082Z,4.20
2019-01-08T21:49:38.658Z,4.10
2019-01-08T21:55:43.204Z,4.10
2019-01-08T22:01:47.817Z,4.10
2019-01-08T22:07:52.439Z,4.10
2019-01-08T22:13:57.114Z,4.10
2019-01-08T22:20:01.660Z,4.00
2019-01-08T22:26:06.196Z,3.90
2019-01-08T22:32:10.748Z,3.70
2019-01-08T22:38:15.344Z,3.50
2019-01-08T22:44:19.910Z,3.40
2019-01-08T22:50:24.432Z,3.40
2019-01-08T22:56:28.985Z,3.50
2019-01-08T23:02:33.666Z,3.50
2019-01-08T23:08:38.243Z,3.70
2019-01-08T23:14:42.806Z,3.80
2019-01-08T23:20:47.421Z,3.90
2019-01-08T23:26:51.974Z,3.90
2019-01-08T23:32:56.536Z,3.70
2019-01-08T23:39:01.166Z,3.70
2019-01-08T23:45:07.948Z,3.70
2019-01-08T23:51:12.573Z,3.60
2019-01-08T23:57:18.420Z,3.60
